createdAt,value
2018-06-23T00:00:44.792Z,987.19
2018-06-23T00:01:44.829Z,987.25
2018-06-23T00:02:44.865Z,987.24
2018-06-23T00:03:44.901Z,987.22
2018-06-23T00:04:44.954Z,987.31
2018-06-23T00:05:44.972Z,987.27
2018-06-23T00:06:45.011Z,987.27
2018-06-23T00:07:45.047Z,987.31
2018-06-23T00:08:45.084Z,987.30
2018-06-23T00:09:45.120Z,987.33
2018-06-23T00:10:45.156Z,987.32
2018-06-23T00:11:45.193Z,987.35
2018-06-23T00:12:45.229Z,987.39
2018-06-23T00:13:45.265Z,987.45
2018-06-23T00:14:45.302Z,987.40
2018-06-23T00:15:45.338Z,987.43
2018-06-23T00:16:45.375Z,987.47
2018-06-23T00:17:45.411Z,987.48
2018-06-23T00:18:45.448Z,987.46
2018-06-23T00:19:45.485Z,987.47
2018-06-23T00:20:45.523Z,987.49
2018-06-23T00:21:45.560Z,987.51
2018-06-23T00:22:45.594Z,987.51
2018-06-23T00:23:45.629Z,987.52
2018-06-23T00:24:45.666Z,987.58
2018-06-23T00:25:45.703Z,987.60
2018-06-23T00:26:45.742Z,987.59
2018-06-23T00:27:45.775Z,987.63
2018-06-23T00:28:45.813Z,987.64
2018-06-23T00:29:45.849Z,987.60
2018-06-23T00:30:45.884Z,987.66
2018-06-23T00:31:45.924Z,987.63
2018-06-23T00:32:45.958Z,987.66
2018-06-23T00:33:45.997Z,987.66
2018-06-23T00:34:46.032Z,987.67
2018-06-23T00:35:46.068Z,987.69
2018-06-23T00:36:46.110Z,987.67
2018-06-23T00:37:46.139Z,987.68
2018-06-23T00:38:46.178Z,987.72
2018-06-23T00:39:46.218Z,987.69
2018-06-23T00:40:46.250Z,987.72
2018-06-23T00:41:46.290Z,987.73
2018-06-23T00:42:46.324Z,987.71
2018-06-23T00:43:46.359Z,987.75
2018-06-23T00:44:46.398Z,987.74
2018-06-23T00:45:46.432Z,987.76
2018-06-23T00:46:46.487Z,987.78
2018-06-23T00:47:46.506Z,987.76
2018-06-23T00:48:46.543Z,987.80
2018-06-23T00:49:46.581Z,987.80
2018-06-23T00:50:46.619Z,987.79
2018-06-23T00:51:46.652Z,987.85
2018-06-23T00:52:46.690Z,987.80
2018-06-23T00:53:46.725Z,987.81
2018-06-23T00:54:46.760Z,987.83
2018-06-23T00:55:46.798Z,987.84
2018-06-23T00:56:46.837Z,987.87
2018-06-23T00:57:46.869Z,987.84
2018-06-23T00:58:46.908Z,987.90
2018-06-23T00:59:46.945Z,987.90
2018-06-23T01:00:46.979Z,987.93
2018-06-23T01:01:47.017Z,987.91
2018-06-23T01:02:47.053Z,987.94
2018-06-23T01:03:47.089Z,987.90
2018-06-23T01:04:47.141Z,987.93
2018-06-23T01:05:47.167Z,987.97
2018-06-23T01:06:47.204Z,988.01
2018-06-23T01:07:47.236Z,987.99
2018-06-23T01:08:47.272Z,988.03
2018-06-23T01:09:47.312Z,988.03
2018-06-23T01:10:47.344Z,988.11
2018-06-23T01:11:47.382Z,988.05
2018-06-23T01:12:47.420Z,988.05
2018-06-23T01:13:47.454Z,988.10
2018-06-23T01:14:47.496Z,988.11
2018-06-23T01:15:47.527Z,988.15
2018-06-23T01:16:47.567Z,988.14
2018-06-23T01:17:47.599Z,988.14
2018-06-23T01:18:47.637Z,988.13
2018-06-23T01:19:47.674Z,988.16
2018-06-23T01:20:47.710Z,988.18
2018-06-23T01:21:47.747Z,988.24
2018-06-23T01:22:47.781Z,988.23
2018-06-23T01:23:47.819Z,988.24
2018-06-23T01:24:47.860Z,988.28
2018-06-23T01:25:47.892Z,988.30
2018-06-23T01:26:47.953Z,988.36
2018-06-23T01:27:47.968Z,988.36
2018-06-23T01:28:48.001Z,988.37
2018-06-23T01:29:48.040Z,988.35
2018-06-23T01:30:48.082Z,988.36
2018-06-23T01:31:48.114Z,988.39
2018-06-23T01:32:48.150Z,988.39
2018-06-23T01:33:48.183Z,988.42
2018-06-23T01:34:48.230Z,988.46
2018-06-23T01:35:48.256Z,988.44
2018-06-23T01:36:48.297Z,988.46
2018-06-23T01:37:48.328Z,988.44
2018-06-23T01:38:48.367Z,988.45
2018-06-23T01:39:48.403Z,988.51
2018-06-23T01:40:48.441Z,988.54
2018-06-23T01:41:48.482Z,988.57
2018-06-23T01:42:48.510Z,988.58
2018-06-23T01:43:48.552Z,988.60
2018-06-23T01:44:48.585Z,988.61
2018-06-23T01:45:48.620Z,988.63
2018-06-23T01:46:48.661Z,988.66
2018-06-23T01:47:48.693Z,988.68
2018-06-23T01:48:48.730Z,988.68
2018-06-23T01:49:48.767Z,988.73
2018-06-23T01:50:48.804Z,988.73
2018-06-23T01:51:48.858Z,988.76
2018-06-23T01:52:48.879Z,988.75
2018-06-23T01:53:48.914Z,988.77
2018-06-23T01:54:48.951Z,988.79
2018-06-23T01:55:48.986Z,988.81
2018-06-23T01:56:49.026Z,988.84
2018-06-23T01:57:49.068Z,988.83
2018-06-23T01:58:49.095Z,988.86
2018-06-23T01:59:49.133Z,988.89
2018-06-23T02:00:49.169Z,988.88
2018-06-23T02:01:49.202Z,988.87
2018-06-23T02:02:49.240Z,988.87
2018-06-23T02:03:49.279Z,988.90
2018-06-23T02:04:49.315Z,988.91
2018-06-23T02:05:49.350Z,988.92
2018-06-23T02:06:49.387Z,988.93
2018-06-23T02:07:49.426Z,988.91
2018-06-23T02:08:49.460Z,988.89
2018-06-23T02:09:49.501Z,988.94
2018-06-23T02:10:49.542Z,988.94
2018-06-23T02:11:49.568Z,988.93
2018-06-23T02:12:50.581Z,988.98
2018-06-23T02:13:49.641Z,988.97
2018-06-23T02:14:49.677Z,988.97
2018-06-23T02:15:49.715Z,988.99
2018-06-23T02:16:49.752Z,989.00
2018-06-23T02:17:49.788Z,989.00
2018-06-23T02:18:49.824Z,989.08
2018-06-23T02:19:49.862Z,989.04
2018-06-23T02:20:49.897Z,989.13
2018-06-23T02:21:49.933Z,989.14
2018-06-23T02:22:49.973Z,989.15
2018-06-23T02:23:50.010Z,989.21
2018-06-23T02:24:50.042Z,989.24
2018-06-23T02:25:50.081Z,989.24
2018-06-23T02:26:50.116Z,989.26
2018-06-23T02:27:50.152Z,989.33
2018-06-23T02:28:50.189Z,989.36
2018-06-23T02:29:50.227Z,989.36
2018-06-23T02:30:50.261Z,989.35
2018-06-23T02:31:50.301Z,989.39
2018-06-23T02:32:50.334Z,989.38
2018-06-23T02:33:50.376Z,989.43
2018-06-23T02:34:50.406Z,989.45
2018-06-23T02:35:50.445Z,989.46
2018-06-23T02:36:50.482Z,989.54
2018-06-23T02:37:50.517Z,989.52
2018-06-23T02:38:50.553Z,989.52
2018-06-23T02:39:50.591Z,989.56
2018-06-23T02:40:50.627Z,989.62
2018-06-23T02:41:50.681Z,989.62
2018-06-23T02:42:50.701Z,989.60
2018-06-23T02:43:50.736Z,989.61
2018-06-23T02:44:50.775Z,989.61
2018-06-23T02:45:50.808Z,989.63
2018-06-23T02:46:50.849Z,989.61
2018-06-23T02:47:50.885Z,989.62
2018-06-23T02:48:50.922Z,989.62
2018-06-23T02:49:50.955Z,989.63
2018-06-23T02:50:50.991Z,989.67
2018-06-23T02:51:51.027Z,989.66
2018-06-23T02:52:51.069Z,989.69
2018-06-23T02:53:51.100Z,989.70
2018-06-23T02:54:51.137Z,989.71
2018-06-23T02:55:51.173Z,989.72
2018-06-23T02:56:51.210Z,989.68
2018-06-23T02:57:51.246Z,989.69
2018-06-23T02:58:51.283Z,989.64
2018-06-23T02:59:51.322Z,989.67
2018-06-23T03:00:51.356Z,989.67
2018-06-23T03:01:51.411Z,989.66
2018-06-23T03:02:51.430Z,989.69
2018-06-23T03:03:51.465Z,989.70
2018-06-23T03:04:51.501Z,989.73
2018-06-23T03:05:51.538Z,989.72
2018-06-23T03:06:51.577Z,989.76
2018-06-23T03:07:51.617Z,989.75
2018-06-23T03:08:51.653Z,989.77
2018-06-23T03:09:51.684Z,989.81
2018-06-23T03:10:51.720Z,989.80
2018-06-23T03:11:51.777Z,989.87
2018-06-23T03:12:51.795Z,989.86
2018-06-23T03:13:51.895Z,989.92
2018-06-23T03:14:51.866Z,989.90
2018-06-23T03:15:51.902Z,989.92
2018-06-23T03:16:51.939Z,989.94
2018-06-23T03:17:51.976Z,989.96
2018-06-23T03:18:52.018Z,989.97
2018-06-23T03:19:52.051Z,989.96
2018-06-23T03:20:52.085Z,989.95
2018-06-23T03:21:52.121Z,990.00
2018-06-23T03:22:52.159Z,989.95
2018-06-23T03:23:52.195Z,990.00
2018-06-23T03:24:52.238Z,990.02
2018-06-23T03:25:52.265Z,990.02
2018-06-23T03:26:52.304Z,990.01
2018-06-23T03:27:52.340Z,990.00
2018-06-23T03:28:52.380Z,989.99
2018-06-23T03:29:52.413Z,990.06
2018-06-23T03:30:52.450Z,990.03
2018-06-23T03:31:52.486Z,990.06
2018-06-23T03:32:54.116Z,990.06
2018-06-23T03:33:52.558Z,990.08
2018-06-23T03:34:52.595Z,990.10
2018-06-23T03:35:52.631Z,990.09
2018-06-23T03:36:52.669Z,990.11
2018-06-23T03:37:52.704Z,990.09
2018-06-23T03:38:52.740Z,990.12
2018-06-23T03:39:52.780Z,990.12
2018-06-23T03:40:52.814Z,990.16
2018-06-23T03:41:52.871Z,990.13
2018-06-23T03:42:52.886Z,990.13
2018-06-23T03:43:52.938Z,990.16
2018-06-23T03:44:52.959Z,990.17
2018-06-23T03:45:52.998Z,990.15
2018-06-23T03:46:53.042Z,990.18
2018-06-23T03:47:53.069Z,990.16
2018-06-23T03:48:53.105Z,990.21
2018-06-23T03:49:53.142Z,990.22
2018-06-23T03:50:53.184Z,990.22
2018-06-23T03:51:53.216Z,990.22
2018-06-23T03:52:53.251Z,990.24
2018-06-23T03:53:53.288Z,990.26
2018-06-23T03:54:53.324Z,990.25
2018-06-23T03:55:53.361Z,990.25
2018-06-23T03:56:53.398Z,990.27
2018-06-23T03:57:53.433Z,990.27
2018-06-23T03:58:53.471Z,990.29
2018-06-23T03:59:53.507Z,990.33
2018-06-23T04:00:53.545Z,990.31
2018-06-23T04:01:53.581Z,990.34
2018-06-23T04:02:53.616Z,990.32
2018-06-23T04:03:53.652Z,990.32
2018-06-23T04:04:53.688Z,990.31
2018-06-23T04:05:53.727Z,990.37
2018-06-23T04:06:53.763Z,990.37
2018-06-23T04:07:53.801Z,990.40
2018-06-23T04:08:53.838Z,990.39
2018-06-23T04:09:53.871Z,990.39
2018-06-23T04:10:53.908Z,990.42
2018-06-23T04:11:53.944Z,990.41
2018-06-23T04:12:53.980Z,990.44
2018-06-23T04:13:54.016Z,990.44
2018-06-23T04:14:54.053Z,990.48
2018-06-23T04:15:54.091Z,990.49
2018-06-23T04:16:54.163Z,990.52
2018-06-23T04:17:54.162Z,990.54
2018-06-23T04:18:54.198Z,990.55
2018-06-23T04:19:54.239Z,990.56
2018-06-23T04:20:54.273Z,990.58
2018-06-23T04:21:54.312Z,990.62
2018-06-23T04:22:54.345Z,990.63
2018-06-23T04:23:54.380Z,990.66
2018-06-23T04:24:54.417Z,990.65
2018-06-23T04:25:54.456Z,990.65
2018-06-23T04:26:54.495Z,990.65
2018-06-23T04:27:54.526Z,990.68
2018-06-23T04:28:54.565Z,990.72
2018-06-23T04:29:54.602Z,990.74
2018-06-23T04:30:54.637Z,990.77
2018-06-23T04:31:54.679Z,990.81
2018-06-23T04:32:54.719Z,990.78
2018-06-23T04:33:54.748Z,990.79
2018-06-23T04:34:54.782Z,990.80
2018-06-23T04:35:54.820Z,990.80
2018-06-23T04:36:54.855Z,990.83
2018-06-23T04:37:54.890Z,990.84
2018-06-23T04:38:54.927Z,990.85
2018-06-23T04:39:54.966Z,990.83
2018-06-23T04:40:55.000Z,990.82
2018-06-23T04:41:55.051Z,990.88
2018-06-23T04:42:55.073Z,990.85
2018-06-23T04:43:55.113Z,990.93
2018-06-23T04:44:55.146Z,990.96
2018-06-23T04:45:55.188Z,991.00
2018-06-23T04:46:55.219Z,991.00
2018-06-23T04:47:55.257Z,991.02
2018-06-23T04:48:55.293Z,991.02
2018-06-23T04:49:55.328Z,991.04
2018-06-23T04:50:55.365Z,991.03
2018-06-23T04:51:55.401Z,991.03
2018-06-23T04:52:55.440Z,991.03
2018-06-23T04:53:55.477Z,991.07
2018-06-23T04:54:55.512Z,991.09
2018-06-23T04:55:55.550Z,991.10
2018-06-23T04:56:55.586Z,991.10
2018-06-23T04:57:55.671Z,991.12
2018-06-23T04:58:55.656Z,991.11
2018-06-23T04:59:55.692Z,991.12
2018-06-23T05:00:55.734Z,991.16
2018-06-23T05:01:55.769Z,991.13
2018-06-23T05:02:55.803Z,991.16
2018-06-23T05:03:55.838Z,991.15
2018-06-23T05:04:55.875Z,991.16
2018-06-23T05:05:55.914Z,991.15
2018-06-23T05:06:55.949Z,991.18
2018-06-23T05:07:55.985Z,991.15
2018-06-23T05:08:56.023Z,991.17
2018-06-23T05:09:56.056Z,991.20
2018-06-23T05:10:56.095Z,991.24
2018-06-23T05:11:56.131Z,991.25
2018-06-23T05:12:56.179Z,991.27
2018-06-23T05:13:56.205Z,991.28
2018-06-23T05:14:56.243Z,991.32
2018-06-23T05:15:56.280Z,991.31
2018-06-23T05:16:56.314Z,991.31
2018-06-23T05:17:56.351Z,991.32
2018-06-23T05:18:56.388Z,991.35
2018-06-23T05:19:56.428Z,991.35
2018-06-23T05:20:56.459Z,991.40
2018-06-23T05:21:56.496Z,991.39
2018-06-23T05:22:56.531Z,991.42
2018-06-23T05:23:56.594Z,991.42
2018-06-23T05:24:56.605Z,991.43
2018-06-23T05:25:56.682Z,991.42
2018-06-23T05:26:56.678Z,991.47
2018-06-23T05:27:56.714Z,991.50
2018-06-23T05:28:56.751Z,991.49
2018-06-23T05:29:56.787Z,991.54
2018-06-23T05:30:56.823Z,991.58
2018-06-23T05:31:56.860Z,991.58
2018-06-23T05:32:56.899Z,991.58
2018-06-23T05:33:56.934Z,991.62
2018-06-23T05:34:56.967Z,991.62
2018-06-23T05:35:57.006Z,991.66
2018-06-23T05:36:57.043Z,991.62
2018-06-23T05:37:57.079Z,991.67
2018-06-23T05:38:57.114Z,991.67
2018-06-23T05:39:57.151Z,991.72
2018-06-23T05:40:57.187Z,991.74
2018-06-23T05:41:57.225Z,991.74
2018-06-23T05:42:57.260Z,991.77
2018-06-23T05:43:57.296Z,991.80
2018-06-23T05:44:57.333Z,991.78
2018-06-23T05:45:57.369Z,991.80
2018-06-23T05:46:57.407Z,991.84
2018-06-23T05:47:57.447Z,991.81
2018-06-23T05:48:57.479Z,991.83
2018-06-23T05:49:57.516Z,991.84
2018-06-23T05:50:57.552Z,991.86
2018-06-23T05:51:57.603Z,991.88
2018-06-23T05:52:57.628Z,991.94
2018-06-23T05:53:57.662Z,991.94
2018-06-23T05:54:57.700Z,991.99
2018-06-23T05:55:57.735Z,992.03
2018-06-23T05:56:57.773Z,992.01
2018-06-23T05:57:57.809Z,992.03
2018-06-23T05:58:57.844Z,992.05
2018-06-23T05:59:57.887Z,992.03
2018-06-23T06:00:57.920Z,992.09
2018-06-23T06:01:57.955Z,992.05
2018-06-23T06:02:57.989Z,992.10
2018-06-23T06:03:58.026Z,992.14
2018-06-23T06:04:58.062Z,992.14
2018-06-23T06:05:58.099Z,992.12
2018-06-23T06:06:58.174Z,992.13
2018-06-23T06:07:58.172Z,992.11
2018-06-23T06:08:58.216Z,992.14
2018-06-23T06:09:58.245Z,992.17
2018-06-23T06:10:58.281Z,992.19
2018-06-23T06:11:58.315Z,992.20
2018-06-23T06:12:58.357Z,992.18
2018-06-23T06:13:58.390Z,992.16
2018-06-23T06:14:58.425Z,992.17
2018-06-23T06:15:58.463Z,992.20
2018-06-23T06:16:58.500Z,992.19
2018-06-23T06:17:58.534Z,992.22
2018-06-23T06:18:58.572Z,992.27
2018-06-23T06:19:58.610Z,992.27
2018-06-23T06:20:58.646Z,992.29
2018-06-23T06:21:58.679Z,992.26
2018-06-23T06:22:58.718Z,992.25
2018-06-23T06:23:58.754Z,992.28
2018-06-23T06:24:58.791Z,992.33
2018-06-23T06:25:58.826Z,992.33
2018-06-23T06:26:58.867Z,992.34
2018-06-23T06:27:58.901Z,992.38
2018-06-23T06:28:58.941Z,992.40
2018-06-23T06:29:58.973Z,992.45
2018-06-23T06:30:59.010Z,992.43
2018-06-23T06:31:59.045Z,992.45
2018-06-23T06:32:59.085Z,992.46
2018-06-23T06:33:59.118Z,992.47
2018-06-23T06:34:59.156Z,992.47
2018-06-23T06:35:59.194Z,992.47
2018-06-23T06:36:59.230Z,992.46
2018-06-23T06:37:59.264Z,992.44
2018-06-23T06:38:59.305Z,992.48
2018-06-23T06:39:59.336Z,992.46
2018-06-23T06:40:59.375Z,992.48
2018-06-23T06:41:59.409Z,992.48
2018-06-23T06:42:59.455Z,992.48
2018-06-23T06:43:59.483Z,992.51
2018-06-23T06:44:59.523Z,992.48
2018-06-23T06:45:59.558Z,992.48
2018-06-23T06:46:59.591Z,992.51
2018-06-23T06:47:59.628Z,992.53
2018-06-23T06:48:59.671Z,992.53
2018-06-23T06:49:59.701Z,992.56
2018-06-23T06:50:59.739Z,992.60
2018-06-23T06:51:59.773Z,992.62
2018-06-23T06:53:00.718Z,992.64
2018-06-23T06:53:59.846Z,992.64
2018-06-23T06:54:59.883Z,992.65
2018-06-23T06:55:59.919Z,992.66
2018-06-23T06:56:59.963Z,992.70
2018-06-23T06:57:59.992Z,992.71
2018-06-23T06:59:00.033Z,992.72
2018-06-23T07:00:00.092Z,992.77
2018-06-23T07:01:00.163Z,992.76
2018-06-23T07:02:00.142Z,992.76
2018-06-23T07:03:00.175Z,992.75
2018-06-23T07:04:00.210Z,992.78
2018-06-23T07:05:00.247Z,992.76
2018-06-23T07:06:00.283Z,992.75
2018-06-23T07:07:00.319Z,992.76
2018-06-23T07:08:00.411Z,992.75
2018-06-23T07:09:00.393Z,992.78
2018-06-23T07:10:00.426Z,992.77
2018-06-23T07:11:00.464Z,992.80
2018-06-23T07:12:00.501Z,992.78
2018-06-23T07:13:00.537Z,992.81
2018-06-23T07:14:00.574Z,992.82
2018-06-23T07:15:00.609Z,992.83
2018-06-23T07:16:00.646Z,992.88
2018-06-23T07:17:00.683Z,992.91
2018-06-23T07:18:00.733Z,992.96
2018-06-23T07:19:00.755Z,992.93
2018-06-23T07:20:00.794Z,992.93
2018-06-23T07:21:00.831Z,992.92
2018-06-23T07:22:00.862Z,992.98
2018-06-23T07:23:00.901Z,992.98
2018-06-23T07:24:01.020Z,993.01
2018-06-23T07:25:00.979Z,993.04
2018-06-23T07:26:01.010Z,993.02
2018-06-23T07:27:01.048Z,993.02
2018-06-23T07:28:01.099Z,993.03
2018-06-23T07:29:01.121Z,993.05
2018-06-23T07:30:01.155Z,993.03
2018-06-23T07:31:01.191Z,993.10
2018-06-23T07:32:01.229Z,993.08
2018-06-23T07:33:01.268Z,993.09
2018-06-23T07:34:01.302Z,993.12
2018-06-23T07:35:01.408Z,993.11
2018-06-23T07:36:01.373Z,993.11
2018-06-23T07:37:01.411Z,993.13
2018-06-23T07:38:01.446Z,993.14
2018-06-23T07:39:01.482Z,993.16
2018-06-23T07:40:01.520Z,993.18
2018-06-23T07:41:01.556Z,993.17
2018-06-23T07:42:01.595Z,993.17
2018-06-23T07:43:01.633Z,993.26
2018-06-23T07:44:01.668Z,993.22
2018-06-23T07:45:01.703Z,993.22
2018-06-23T07:46:01.740Z,993.25
2018-06-23T07:47:01.774Z,993.25
2018-06-23T07:48:01.809Z,993.23
2018-06-23T07:49:01.846Z,993.28
2018-06-23T07:50:01.883Z,993.23
2018-06-23T07:51:01.922Z,993.22
2018-06-23T07:52:01.961Z,993.21
2018-06-23T07:53:02.742Z,993.19
2018-06-23T07:54:02.028Z,993.22
2018-06-23T07:55:02.067Z,993.29
2018-06-23T07:56:02.103Z,993.29
2018-06-23T07:57:02.139Z,993.33
2018-06-23T07:58:02.174Z,993.29
2018-06-23T07:59:02.209Z,993.31
2018-06-23T08:00:02.253Z,993.34
2018-06-23T08:01:02.286Z,993.31
2018-06-23T08:02:02.327Z,993.33
2018-06-23T08:03:02.355Z,993.30
2018-06-23T08:04:02.392Z,993.31
2018-06-23T08:05:02.432Z,993.35
2018-06-23T08:06:02.466Z,993.37
2018-06-23T08:07:02.503Z,993.37
2018-06-23T08:08:02.538Z,993.32
2018-06-23T08:09:02.574Z,993.36
2018-06-23T08:10:02.619Z,993.37
2018-06-23T08:11:02.647Z,993.39
2018-06-23T08:12:02.683Z,993.41
2018-06-23T08:13:02.719Z,993.44
2018-06-23T08:14:02.757Z,993.43
2018-06-23T08:15:02.792Z,993.45
2018-06-23T08:16:02.839Z,993.47
2018-06-23T08:17:02.865Z,993.50
2018-06-23T08:18:02.902Z,993.50
2018-06-23T08:19:02.938Z,993.52
2018-06-23T08:20:02.976Z,993.52
2018-06-23T08:21:03.011Z,993.54
2018-06-23T08:22:03.045Z,993.56
2018-06-23T08:23:03.084Z,993.56
2018-06-23T08:24:03.120Z,993.58
2018-06-23T08:25:03.195Z,993.53
2018-06-23T08:26:03.194Z,993.59
2018-06-23T08:27:03.234Z,993.61
2018-06-23T08:28:03.265Z,993.59
2018-06-23T08:29:03.304Z,993.62
2018-06-23T08:30:03.337Z,993.64
2018-06-23T08:31:03.375Z,993.66
2018-06-23T08:32:03.410Z,993.70
2018-06-23T08:33:03.449Z,993.67
2018-06-23T08:34:03.483Z,993.75
2018-06-23T08:35:03.523Z,993.74
2018-06-23T08:36:03.556Z,993.74
2018-06-23T08:37:03.592Z,993.85
2018-06-23T08:38:03.631Z,993.82
2018-06-23T08:39:03.686Z,993.81
2018-06-23T08:40:03.701Z,993.83
2018-06-23T08:41:03.741Z,993.84
2018-06-23T08:42:03.774Z,993.81
2018-06-23T08:43:03.809Z,993.83
2018-06-23T08:44:03.847Z,993.84
2018-06-23T08:45:03.883Z,993.84
2018-06-23T08:46:03.919Z,993.88
2018-06-23T08:47:03.956Z,993.87
2018-06-23T08:48:03.992Z,993.89
2018-06-23T08:49:04.104Z,993.90
2018-06-23T08:50:04.065Z,993.94
2018-06-23T08:51:04.101Z,993.92
2018-06-23T08:52:04.167Z,993.92
2018-06-23T08:53:04.178Z,994.00
2018-06-23T08:54:04.210Z,993.95
2018-06-23T08:55:04.246Z,993.95
2018-06-23T08:56:04.285Z,993.99
2018-06-23T08:57:04.323Z,994.02
2018-06-23T08:58:04.354Z,994.05
2018-06-23T08:59:04.392Z,994.06
2018-06-23T09:00:04.428Z,994.04
2018-06-23T09:01:04.466Z,994.05
2018-06-23T09:02:04.518Z,994.07
2018-06-23T09:03:04.537Z,994.03
2018-06-23T09:04:04.579Z,994.09
2018-06-23T09:05:04.610Z,994.09
2018-06-23T09:06:04.647Z,994.08
2018-06-23T09:07:04.683Z,994.08
2018-06-23T09:08:04.719Z,994.11
2018-06-23T09:09:04.757Z,994.09
2018-06-23T09:10:04.790Z,994.13
2018-06-23T09:11:04.828Z,994.11
2018-06-23T09:12:04.866Z,994.18
2018-06-23T09:13:04.902Z,994.19
2018-06-23T09:14:04.939Z,994.16
2018-06-23T09:15:04.974Z,994.19
2018-06-23T09:16:05.010Z,994.24
2018-06-23T09:17:05.047Z,994.24
2018-06-23T09:18:05.083Z,994.25
2018-06-23T09:19:05.122Z,994.25
2018-06-23T09:20:05.171Z,994.24
2018-06-23T09:21:05.192Z,994.22
2018-06-23T09:22:05.228Z,994.30
2018-06-23T09:23:05.263Z,994.31
2018-06-23T09:24:05.300Z,994.30
2018-06-23T09:25:05.343Z,994.34
2018-06-23T09:26:05.373Z,994.37
2018-06-23T09:27:05.408Z,994.38
2018-06-23T09:28:05.447Z,994.41
2018-06-23T09:29:05.481Z,994.41
2018-06-23T09:30:05.526Z,994.41
2018-06-23T09:31:05.555Z,994.45
2018-06-23T09:32:05.590Z,994.45
2018-06-23T09:33:05.631Z,994.42
2018-06-23T09:34:05.663Z,994.42
2018-06-23T09:35:05.700Z,994.45
2018-06-23T09:36:05.738Z,994.49
2018-06-23T09:37:05.773Z,994.53
2018-06-23T09:38:05.808Z,994.54
2018-06-23T09:39:05.844Z,994.53
2018-06-23T09:40:05.885Z,994.57
2018-06-23T09:41:05.917Z,994.62
2018-06-23T09:42:05.953Z,994.58
2018-06-23T09:43:05.990Z,994.60
2018-06-23T09:44:06.026Z,994.60
2018-06-23T09:45:06.064Z,994.63
2018-06-23T09:46:06.101Z,994.62
2018-06-23T09:47:06.135Z,994.61
2018-06-23T09:48:06.175Z,994.62
2018-06-23T09:49:06.208Z,994.65
2018-06-23T09:50:06.243Z,994.64
2018-06-23T09:51:06.290Z,994.66
2018-06-23T09:52:06.316Z,994.70
2018-06-23T09:53:08.302Z,994.67
2018-06-23T09:54:06.391Z,994.69
2018-06-23T09:55:06.425Z,994.71
2018-06-23T09:56:06.464Z,994.68
2018-06-23T09:57:06.499Z,994.67
2018-06-23T09:58:06.539Z,994.71
2018-06-23T09:59:06.572Z,994.70
2018-06-23T10:00:06.608Z,994.70
2018-06-23T10:01:06.648Z,994.73
2018-06-23T10:02:06.680Z,994.74
2018-06-23T10:03:06.731Z,994.74
2018-06-23T10:04:06.754Z,994.76
2018-06-23T10:05:06.791Z,994.77
2018-06-23T10:06:06.896Z,994.80
2018-06-23T10:07:06.909Z,994.85
2018-06-23T10:08:06.898Z,994.84
2018-06-23T10:09:06.935Z,994.88
2018-06-23T10:10:06.972Z,994.89
2018-06-23T10:11:07.006Z,994.87
2018-06-23T10:12:07.042Z,994.89
2018-06-23T10:13:07.080Z,994.88
2018-06-23T10:14:07.117Z,994.91
2018-06-23T10:15:07.152Z,994.89
2018-06-23T10:16:07.188Z,994.95
2018-06-23T10:17:07.226Z,994.94
2018-06-23T10:18:07.260Z,994.95
2018-06-23T10:19:07.296Z,995.00
2018-06-23T10:20:07.335Z,995.00
2018-06-23T10:21:07.369Z,994.99
2018-06-23T10:22:07.415Z,995.01
2018-06-23T10:23:07.442Z,995.02
2018-06-23T10:24:07.480Z,995.03
2018-06-23T10:25:07.516Z,995.02
2018-06-23T10:26:07.550Z,995.02
2018-06-23T10:27:07.588Z,995.03
2018-06-23T10:28:07.623Z,995.03
2018-06-23T10:29:07.661Z,995.01
2018-06-23T10:30:07.695Z,995.04
2018-06-23T10:31:07.732Z,995.05
2018-06-23T10:32:07.785Z,995.07
2018-06-23T10:33:07.807Z,995.06
2018-06-23T10:34:07.841Z,995.07
2018-06-23T10:35:07.878Z,995.05
2018-06-23T10:36:07.915Z,995.05
2018-06-23T10:37:07.956Z,995.07
2018-06-23T10:38:07.986Z,995.12
2018-06-23T10:39:08.022Z,995.12
2018-06-23T10:40:08.112Z,995.14
2018-06-23T10:41:08.095Z,995.17
2018-06-23T10:42:08.131Z,995.18
2018-06-23T10:43:08.168Z,995.19
2018-06-23T10:44:08.205Z,995.18
2018-06-23T10:45:08.239Z,995.22
2018-06-23T10:46:08.275Z,995.25
2018-06-23T10:47:08.312Z,995.23
2018-06-23T10:48:08.351Z,995.19
2018-06-23T10:49:08.386Z,995.23
2018-06-23T10:50:08.425Z,995.21
2018-06-23T10:51:08.458Z,995.22
2018-06-23T10:52:08.494Z,995.24
2018-06-23T10:53:08.534Z,995.25
2018-06-23T10:54:08.565Z,995.27
2018-06-23T10:55:08.611Z,995.28
2018-06-23T10:56:08.639Z,995.30
2018-06-23T10:57:08.676Z,995.31
2018-06-23T10:58:08.714Z,995.33
2018-06-23T10:59:08.747Z,995.31
2018-06-23T11:00:08.783Z,995.29
2018-06-23T11:01:08.821Z,995.32
2018-06-23T11:02:08.856Z,995.39
2018-06-23T11:03:08.896Z,995.33
2018-06-23T11:04:08.930Z,995.34
2018-06-23T11:05:08.975Z,995.36
2018-06-23T11:06:09.005Z,995.36
2018-06-23T11:07:09.042Z,995.38
2018-06-23T11:08:09.075Z,995.35
2018-06-23T11:09:09.112Z,995.40
2018-06-23T11:10:09.147Z,995.44
2018-06-23T11:11:09.184Z,995.41
2018-06-23T11:12:09.220Z,995.43
2018-06-23T11:13:09.266Z,995.43
2018-06-23T11:14:09.294Z,995.43
2018-06-23T11:15:09.333Z,995.45
2018-06-23T11:16:09.368Z,995.44
2018-06-23T11:17:09.402Z,995.44
2018-06-23T11:18:09.439Z,995.44
2018-06-23T11:19:09.475Z,995.47
2018-06-23T11:20:09.510Z,995.51
2018-06-23T11:21:09.548Z,995.60
2018-06-23T11:22:09.583Z,995.55
2018-06-23T11:23:09.619Z,995.56
2018-06-23T11:24:09.661Z,995.58
2018-06-23T11:25:09.691Z,995.62
2018-06-23T11:26:09.727Z,995.66
2018-06-23T11:27:09.768Z,995.67
2018-06-23T11:28:09.801Z,995.73
2018-06-23T11:29:09.837Z,995.70
2018-06-23T11:30:09.873Z,995.75
2018-06-23T11:31:09.912Z,995.71
2018-06-23T11:32:09.996Z,995.73
2018-06-23T11:33:10.852Z,995.79
2018-06-23T11:34:10.019Z,995.77
2018-06-23T11:35:10.055Z,995.81
2018-06-23T11:36:10.091Z,995.79
2018-06-23T11:37:10.128Z,995.83
2018-06-23T11:38:10.163Z,995.85
2018-06-23T11:39:10.198Z,995.85
2018-06-23T11:40:10.236Z,995.88
2018-06-23T11:41:10.294Z,995.91
2018-06-23T11:42:10.310Z,995.89
2018-06-23T11:43:10.343Z,995.94
2018-06-23T11:44:10.381Z,995.94
2018-06-23T11:45:10.419Z,995.95
2018-06-23T11:46:10.455Z,995.97
2018-06-23T11:47:10.496Z,995.93
2018-06-23T11:48:10.533Z,996.00
2018-06-23T11:49:10.562Z,995.97
2018-06-23T11:50:10.602Z,995.98
2018-06-23T11:51:10.634Z,995.99
2018-06-23T11:52:10.725Z,996.01
2018-06-23T11:53:10.727Z,996.06
2018-06-23T11:54:10.742Z,996.02
2018-06-23T11:55:10.780Z,996.06
2018-06-23T11:56:10.815Z,996.05
2018-06-23T11:57:10.853Z,996.03
2018-06-23T11:58:10.890Z,996.09
2018-06-23T11:59:10.926Z,996.13
2018-06-23T12:00:10.961Z,996.08
2018-06-23T12:01:10.998Z,996.08
2018-06-23T12:02:11.033Z,996.06
2018-06-23T12:03:11.097Z,996.09
2018-06-23T12:04:11.106Z,996.17
2018-06-23T12:05:11.144Z,996.11
2018-06-23T12:06:11.177Z,996.15
2018-06-23T12:07:11.214Z,996.10
2018-06-23T12:08:11.250Z,996.11
2018-06-23T12:09:11.308Z,996.17
2018-06-23T12:10:11.322Z,996.18
2018-06-23T12:11:11.359Z,996.20
2018-06-23T12:12:11.396Z,996.16
2018-06-23T12:13:11.442Z,996.20
2018-06-23T12:14:11.469Z,996.23
2018-06-23T12:15:11.505Z,996.19
2018-06-23T12:16:11.540Z,996.19
2018-06-23T12:17:11.578Z,996.23
2018-06-23T12:18:11.615Z,996.29
2018-06-23T12:19:11.648Z,996.24
2018-06-23T12:20:11.721Z,996.25
2018-06-23T12:21:11.723Z,996.30
2018-06-23T12:22:11.758Z,996.28
2018-06-23T12:23:11.794Z,996.33
2018-06-23T12:24:11.834Z,996.31
2018-06-23T12:25:11.867Z,996.30
2018-06-23T12:26:11.902Z,996.31
2018-06-23T12:27:11.941Z,996.29
2018-06-23T12:28:11.975Z,996.24
2018-06-23T12:29:12.013Z,996.30